Observation data for Pampa on 02/24/2021      Previous  Date  Next       Current Mesonet Observations  Soil Data  Daily Summary Page  Observations in Plain Language
KPMS 240600Z 31021KT 11/M04 A2979 RMK A01 T01081042  RH  035%=      5-min Rain = 0
KPMS 240605Z 32021KT 10/M04 A2979 RMK A01 T01021041  RH  036%=      5-min Rain = 0
KPMS 240610Z 33019G24KT 10/M04 A298 RMK A01 T00981040  RH  038%=      5-min Rain = 0
KPMS 240615Z 33020G26KT 10/M04 A2981 RMK A01 T00951039  RH  039%=      5-min Rain = 0
KPMS 240620Z 34019G27KT 09/M04 A2982 RMK A01 T00911038  RH  040%=      5-min Rain = 0
KPMS 240625Z 35017G22KT 09/M04 A2983 RMK A01 T00861035  RH  042%=      5-min Rain = 0
KPMS 240630Z 36017KT 09/M04 A2983 RMK A01 T00851035  RH  043%=      5-min Rain = 0
KPMS 240635Z 00018G23KT 08/M03 A2984 RMK A01 T00831034  RH  044%=      5-min Rain = 0
KPMS 240640Z 36017G24KT 08/M03 A2984 RMK A01 T00821034  RH  044%=      5-min Rain = 0
KPMS 240645Z 36017G23KT 08/M03 A2985 RMK A01 T00811034  RH  044%=      5-min Rain = 0
KPMS 240650Z 36020G26KT 08/M03 A2985 RMK A01 T00811034  RH  044%=      5-min Rain = 0
KPMS 240655Z 36022G32KT 08/M04 A2985 RMK A01 T00811036  RH  043%=      5-min Rain = 0
KPMS 240700Z 36022G29KT 08/M04 A2985 RMK A01 T00811037  RH  043%=      5-min Rain = 0
KPMS 240705Z 36022G29KT 08/M04 A2986 RMK A01 T00801037  RH  044%=      5-min Rain = 0
KPMS 240710Z 35024G31KT 08/M04 A2986 RMK A01 T00791037  RH  044%=      5-min Rain = 0
KPMS 240715Z 35023KT 08/M04 A2986 RMK A01 T00771037  RH  044%=      5-min Rain = 0
KPMS 240720Z 35023G29KT 08/M04 A2987 RMK A01 T00761037  RH  045%=      5-min Rain = 0
KPMS 240725Z 35026G33KT 08/M04 A2987 RMK A01 T00761037  RH  045%=      5-min Rain = 0
KPMS 240730Z 35025G32KT 08/M04 A2987 RMK A01 T00751038  RH  045%=      5-min Rain = 0
KPMS 240735Z 35024G32KT 07/M04 A2988 RMK A01 T00741039  RH  045%=      5-min Rain = 0
KPMS 240740Z 35023G29KT 07/M04 A2988 RMK A01 T00721040  RH  045%=      5-min Rain = 0
KPMS 240745Z 35022G31KT 07/M04 A2989 RMK A01 T00711041  RH  045%=      5-min Rain = 0
KPMS 240750Z 35024G30KT 07/M04 A2989 RMK A01 T00721043  RH  044%=      5-min Rain = 0
KPMS 240755Z 35022G27KT 07/M04 A2989 RMK A01 T00701044  RH  044%=      5-min Rain = 0
KPMS 240800Z 35021G30KT 07/M04 A299 RMK A01 T00691043  RH  045%=      5-min Rain = 0
KPMS 240805Z 35020G26KT 07/M04 A2991 RMK A01 T00671043  RH  046%=      5-min Rain = 0
KPMS 240810Z 35020G25KT 07/M04 A2991 RMK A01 T00661042  RH  046%=      5-min Rain = 0
KPMS 240815Z 35021G26KT 07/M04 A2991 RMK A01 T00651042  RH  046%=      5-min Rain = 0
KPMS 240820Z 35020G26KT 06/M04 A2992 RMK A01 T00641042  RH  047%=      5-min Rain = 0
KPMS 240825Z 35021G26KT 06/M04 A2992 RMK A01 T00641042  RH  047%=      5-min Rain = 0
KPMS 240830Z 35020G26KT 06/M04 A2992 RMK A01 T00621042  RH  048%=      5-min Rain = 0
KPMS 240835Z 35020G25KT 06/M04 A2992 RMK A01 T00621041  RH  048%=      5-min Rain = 0
KPMS 240840Z 35021G26KT 06/M04 A2992 RMK A01 T00611041  RH  048%=      5-min Rain = 0
KPMS 240845Z 35020G27KT 06/M04 A2992 RMK A01 T00601040  RH  049%=      5-min Rain = 0
KPMS 240850Z 35019G25KT 06/M04 A2992 RMK A01 T00581040  RH  050%=      5-min Rain = 0
KPMS 240855Z 35020G25KT 06/M04 A2992 RMK A01 T00561038  RH  051%=      5-min Rain = 0
KPMS 240900Z 34021G27KT 06/M04 A2993 RMK A01 T00561038  RH  051%=      5-min Rain = 0
KPMS 240905Z 34020G25KT 06/M04 A2993 RMK A01 T00551037  RH  052%=      5-min Rain = 0
KPMS 240910Z 34020G26KT 05/M04 A2994 RMK A01 T00531036  RH  053%=      5-min Rain = 0
KPMS 240915Z 34020G26KT 05/M04 A2994 RMK A01 T00521035  RH  053%=      5-min Rain = 0
KPMS 240920Z 34020KT 05/M04 A2994 RMK A01 T00501035  RH  054%=      5-min Rain = 0
KPMS 240925Z 33019G24KT 05/M04 A2994 RMK A01 T00471036  RH  055%=      5-min Rain = 0
KPMS 240930Z 34019G25KT 05/M04 A2994 RMK A01 T00451035  RH  056%=      5-min Rain = 0
KPMS 240935Z 34019G24KT 04/M03 A2995 RMK A01 T00441034  RH  057%=      5-min Rain = 0
KPMS 240940Z 34018G23KT 04/M03 A2995 RMK A01 T00421034  RH  058%=      5-min Rain = 0
KPMS 240945Z 34018G23KT 04/M03 A2996 RMK A01 T00401034  RH  059%=      5-min Rain = 0
KPMS 240950Z 33018KT 04/M03 A2996 RMK A01 T00391033  RH  060%=      5-min Rain = 0
KPMS 240955Z 33017G22KT 04/M03 A2997 RMK A01 T00381033  RH  060%=      5-min Rain = 0
KPMS 241000Z 33015KT 04/M03 A2998 RMK A01 T00361033  RH  061%=      5-min Rain = 0
KPMS 241005Z 32013G19KT 04/M03 A2999 RMK A01 T00351033  RH  061%=      5-min Rain = 0
KPMS 241010Z 32013KT 03/M03 A2999 RMK A01 T00331032  RH  063%=      5-min Rain = 0
KPMS 241015Z 32011KT 03/M03 A30 RMK A01 T00321032  RH  063%=      5-min Rain = 0
KPMS 241020Z 32011KT 03/M03 A30 RMK A01 T00301033  RH  064%=      5-min Rain = 0
KPMS 241025Z 32011KT 03/M03 A30 RMK A01 T00251034  RH  065%=      5-min Rain = 0
KPMS 241030Z 32011KT 02/M03 A30 RMK A01 T00221034  RH  067%=      5-min Rain = 0
KPMS 241035Z 32012G17KT 02/M03 A30 RMK A01 T00211034  RH  067%=      5-min Rain = 0
KPMS 241040Z 32012KT 02/M03 A30 RMK A01 T00211033  RH  068%=      5-min Rain = 0
KPMS 241045Z 32012KT 02/M03 A3001 RMK A01 T00201033  RH  069%=      5-min Rain = 0
KPMS 241050Z 32012G17KT 02/M03 A3002 RMK A01 T00191032  RH  069%=      5-min Rain = 0
KPMS 241055Z 32013KT 02/M03 A3002 RMK A01 T00181033  RH  069%=      5-min Rain = 0
KPMS 241100Z 32012KT 02/M03 A3003 RMK A01 T00161033  RH  070%=      5-min Rain = 0
KPMS 241105Z 32012KT 02/M03 A3004 RMK A01 T00151033  RH  071%=      5-min Rain = 0
KPMS 241110Z 32012KT 01/M03 A3004 RMK A01 T00141034  RH  071%=      5-min Rain = 0
KPMS 241115Z 32013KT 01/M03 A3004 RMK A01 T00131033  RH  071%=      5-min Rain = 0
KPMS 241120Z 32013KT 01/M03 A3005 RMK A01 T00121034  RH  072%=      5-min Rain = 0
KPMS 241125Z 32013KT 01/M03 A3005 RMK A01 T00091034  RH  073%=      5-min Rain = 0
KPMS 241130Z 32013KT 01/M03 A3005 RMK A01 T00091034  RH  074%=      5-min Rain = 0
KPMS 241135Z 32014KT 01/M03 A3005 RMK A01 T00081034  RH  074%=      5-min Rain = 0
KPMS 241140Z 32014KT 01/M03 A3006 RMK A01 T00081034  RH  074%=      5-min Rain = 0
KPMS 241145Z 32014KT 01/M04 A3006 RMK A01 T00051035  RH  075%=      5-min Rain = 0
KPMS 241150Z 32013KT 00/M04 A3007 RMK A01 T00031036  RH  076%=      5-min Rain = 0
KPMS 241155Z 32014KT 00/M04 A3007 RMK A01 T00021036  RH  076%=      5-min Rain = 0
KPMS 241200Z 32013KT 00/M04 A3008 RMK A01 T00011036  RH  077%=      5-min Rain = 0
KPMS 241205Z 32013KT M00/M04 A3008 RMK A01 T10011036  RH  077%=      5-min Rain = 0
KPMS 241210Z 32013KT M00/M04 A3008 RMK A01 T10011036  RH  077%=      5-min Rain = 0
KPMS 241215Z 32013KT M00/M04 A3009 RMK A01 T10011036  RH  078%=      5-min Rain = 0
KPMS 241220Z 32013KT M00/M04 A3009 RMK A01 T10021037  RH  077%=      5-min Rain = 0
KPMS 241225Z 32013KT M00/M04 A3009 RMK A01 T10031038  RH  078%=      5-min Rain = 0
KPMS 241230Z 32013KT M00/M04 A3009 RMK A01 T10041039  RH  077%=      5-min Rain = 0
KPMS 241235Z 32014KT M01/M04 A3009 RMK A01 T10051041  RH  077%=      5-min Rain = 0
KPMS 241240Z 32014KT M01/M04 A3009 RMK A01 T10071043  RH  077%=      5-min Rain = 0
KPMS 241245Z 32014KT M01/M04 A301 RMK A01 T10081043  RH  077%=      5-min Rain = 0
KPMS 241250Z 32015KT M01/M04 A301 RMK A01 T10091044  RH  077%=      5-min Rain = 0
KPMS 241255Z 32015KT M01/M05 A301 RMK A01 T10101045  RH  077%=      5-min Rain = 0
KPMS 241300Z 32016KT M01/M05 A301 RMK A01 T10111046  RH  077%=      5-min Rain = 0
KPMS 241305Z 32015KT M01/M05 A301 RMK A01 T10121047  RH  077%=      5-min Rain = 0
KPMS 241310Z 32015KT M01/M05 A301 RMK A01 T10141048  RH  078%=      5-min Rain = 0
KPMS 241315Z 32016KT M01/M05 A301 RMK A01 T10141049  RH  078%=      5-min Rain = 0
KPMS 241320Z 32014KT M02/M05 A3011 RMK A01 T10151050  RH  077%=      5-min Rain = 0
KPMS 241325Z 32014KT M02/M05 A3011 RMK A01 T10161050  RH  078%=      5-min Rain = 0
KPMS 241330Z 32015KT M01/M05 A3012 RMK A01 T10141050  RH  077%=      5-min Rain = 0
KPMS 241335Z 32016KT M01/M05 A3012 RMK A01 T10141051  RH  076%=      5-min Rain = 0
KPMS 241340Z 32014KT M01/M05 A3012 RMK A01 T10141051  RH  076%=      5-min Rain = 0
KPMS 241345Z 32015KT M01/M05 A3013 RMK A01 T10141051  RH  076%=      5-min Rain = 0
KPMS 241350Z 32014KT M01/M05 A3013 RMK A01 T10131051  RH  076%=      5-min Rain = 0
KPMS 241355Z 32013KT M01/M05 A3014 RMK A01 T10131050  RH  076%=      5-min Rain = 0
KPMS 241400Z 32014KT M01/M05 A3014 RMK A01 T10111050  RH  075%=      5-min Rain = 0
KPMS 241405Z 33015KT M01/M05 A3014 RMK A01 T10071049  RH  074%=      5-min Rain = 0
KPMS 241410Z 32016G21KT M00/M05 A3014 RMK A01 T10041048  RH  073%=      5-min Rain = 0
KPMS 241415Z 33017KT M00/M05 A3015 RMK A01 T10031048  RH  072%=      5-min Rain = 0
KPMS 241420Z 33016G21KT M00/M05 A3015 RMK A01 T10021048  RH  072%=      5-min Rain = 0
KPMS 241425Z 33016G21KT M00/M05 A3015 RMK A01 T10011047  RH  071%=      5-min Rain = 0
KPMS 241430Z 33016G21KT 00/M05 A3016 RMK A01 T00031046  RH  070%=      5-min Rain = 0
KPMS 241435Z 33017G22KT 01/M05 A3016 RMK A01 T00061046  RH  069%=      5-min Rain = 0
KPMS 241440Z 33018KT 01/M05 A3017 RMK A01 T00081047  RH  067%=      5-min Rain = 0
KPMS 241445Z 33018G24KT 01/M05 A3017 RMK A01 T00101048  RH  066%=      5-min Rain = 0
KPMS 241450Z 33018G25KT 01/M05 A3017 RMK A01 T00121048  RH  065%=      5-min Rain = 0
KPMS 241455Z 33016G21KT 01/M05 A3017 RMK A01 T00141048  RH  064%=      5-min Rain = 0
KPMS 241500Z 34015G21KT 02/M05 A3018 RMK A01 T00151049  RH  063%=      5-min Rain = 0
KPMS 241505Z 35014G20KT 02/M05 A3019 RMK A01 T00201047  RH  061%=      5-min Rain = 0
KPMS 241510Z 34016KT 02/M05 A3019 RMK A01 T00201050  RH  060%=      5-min Rain = 0
KPMS 241515Z 35015G20KT 02/M05 A3019 RMK A01 T00221050  RH  059%=      5-min Rain = 0
KPMS 241520Z 35015G21KT 03/M05 A3019 RMK A01 T00261051  RH  057%=      5-min Rain = 0
KPMS 241525Z 35015G20KT 03/M05 A3019 RMK A01 T00251054  RH  056%=      5-min Rain = 0
KPMS 241530Z 35015KT 03/M05 A3019 RMK A01 T00311052  RH  054%=      5-min Rain = 0
KPMS 241535Z 35017KT 03/M06 A3019 RMK A01 T00321055  RH  053%=      5-min Rain = 0
KPMS 241540Z 36015KT 03/M06 A3019 RMK A01 T00331056  RH  052%=      5-min Rain = 0
KPMS 241545Z 35017G22KT 04/M06 A302 RMK A01 T00371059  RH  050%=      5-min Rain = 0
KPMS 241550Z 35016G21KT 04/M06 A302 RMK A01 T00381059  RH  049%=      5-min Rain = 0
KPMS 241555Z 35016KT 04/M06 A302 RMK A01 T00421059  RH  048%=      5-min Rain = 0
KPMS 241600Z 36015KT 04/M06 A302 RMK A01 T00431059  RH  048%=      5-min Rain = 0
KPMS 241605Z 01016KT 04/M06 A302 RMK A01 T00441060  RH  047%=      5-min Rain = 0
KPMS 241610Z 01015G21KT 05/M06 A302 RMK A01 T00451060  RH  046%=      5-min Rain = 0
KPMS 241615Z 01015G20KT 05/M06 A302 RMK A01 T00481060  RH  046%=      5-min Rain = 0
KPMS 241620Z 00013G18KT 05/M06 A302 RMK A01 T00531057  RH  045%=      5-min Rain = 0
KPMS 241625Z 01015KT 05/M06 A302 RMK A01 T00511060  RH  045%=      5-min Rain = 0
KPMS 241630Z 01013G18KT 05/M06 A3021 RMK A01 T00511060  RH  044%=      5-min Rain = 0
KPMS 241635Z 01015KT 05/M06 A3021 RMK A01 T00521062  RH  044%=      5-min Rain = 0
KPMS 241640Z 01015G21KT 06/M06 A3021 RMK A01 T00551060  RH  043%=      5-min Rain = 0
KPMS 241645Z 01013G19KT 06/M06 A3021 RMK A01 T00571060  RH  043%=      5-min Rain = 0
KPMS 241650Z 00014G19KT 06/M06 A3021 RMK A01 T00571061  RH  042%=      5-min Rain = 0
KPMS 241655Z 01013KT 06/M06 A3021 RMK A01 T00601059  RH  042%=      5-min Rain = 0
KPMS 241700Z 01013G18KT 06/M06 A3021 RMK A01 T00621059  RH  041%=      5-min Rain = 0
KPMS 241705Z 36012G18KT 07/M06 A3021 RMK A01 T00671056  RH  041%=      5-min Rain = 0
KPMS 241710Z 01012G17KT 07/M06 A302 RMK A01 T00681058  RH  040%=      5-min Rain = 0
KPMS 241715Z 00014KT 07/M06 A302 RMK A01 T00681059  RH  040%=      5-min Rain = 0
KPMS 241720Z 00014G19KT 07/M06 A302 RMK A01 T00691061  RH  039%=      5-min Rain = 0
KPMS 241725Z 01013G20KT 07/M06 A302 RMK A01 T00731059  RH  039%=      5-min Rain = 0
KPMS 241730Z 01014G19KT 07/M06 A302 RMK A01 T00731059  RH  039%=      5-min Rain = 0
KPMS 241735Z 00013G18KT 08/M06 A302 RMK A01 T00771059  RH  038%=      5-min Rain = 0
KPMS 241740Z 35014KT 07/M06 A302 RMK A01 T00741060  RH  038%=      5-min Rain = 0
KPMS 241745Z 36013G18KT 08/M06 A302 RMK A01 T00751062  RH  037%=      5-min Rain = 0
KPMS 241750Z 36013KT 08/M06 A302 RMK A01 T00751064  RH  037%=      5-min Rain = 0
KPMS 241755Z 00013G20KT 07/M06 A302 RMK A01 T00741063  RH  037%=      5-min Rain = 0
KPMS 241800Z 36012G18KT 08/M06 A302 RMK A01 T00801063  RH  036%=      5-min Rain = 0
KPMS 241805Z 35013KT 08/M06 A302 RMK A01 T00821063  RH  035%=      5-min Rain = 0
KPMS 241810Z 36013G18KT 08/M07 A302 RMK A01 T00821066  RH  034%=      5-min Rain = 0
KPMS 241815Z 35012KT 08/M06 A302 RMK A01 T00821063  RH  035%=      5-min Rain = 0
KPMS 241820Z 36011G17KT 08/M07 A302 RMK A01 T00801066  RH  035%=      5-min Rain = 0
KPMS 241825Z 01011G20KT 09/M06 A3019 RMK A01 T00871061  RH  035%=      5-min Rain = 0
KPMS 241830Z 35013KT 09/M07 A3019 RMK A01 T00871065  RH  033%=      5-min Rain = 0
KPMS 241835Z 00012G19KT 09/M06 A3019 RMK A01 T00871064  RH  034%=      5-min Rain = 0
KPMS 241840Z 00010G15KT 09/M07 A3019 RMK A01 T00871066  RH  033%=      5-min Rain = 0
KPMS 241845Z 01012KT 09/M07 A3019 RMK A01 T00901069  RH  032%=      5-min Rain = 0
KPMS 241850Z 03009G14KT 09/M07 A3018 RMK A01 T00941069  RH  031%=      5-min Rain = 0
KPMS 241855Z 03011KT 10/M07 A3018 RMK A01 T00971067  RH  031%=      5-min Rain = 0
KPMS 241900Z 03010KT 10/M07 A3018 RMK A01 T00951073  RH  030%=      5-min Rain = 0
KPMS 241905Z 01010KT 10/M07 A3017 RMK A01 T00951074  RH  029%=      5-min Rain = 0
KPMS 241910Z 00008G14KT 09/M07 A3017 RMK A01 T00941072  RH  030%=      5-min Rain = 0
KPMS 241915Z 02011KT 10/M07 A3017 RMK A01 T00981073  RH  029%=      5-min Rain = 0
KPMS 241920Z 02008KT 10/M07 A3017 RMK A01 T00961074  RH  029%=      5-min Rain = 0
KPMS 241925Z 04010G16KT 10/M08 A3017 RMK A01 T00991078  RH  028%=      5-min Rain = 0
KPMS 241930Z 03009G15KT 10/M08 A3017 RMK A01 T00951080  RH  028%=      5-min Rain = 0
KPMS 241935Z 01010KT 10/M08 A3017 RMK A01 T00971078  RH  028%=      5-min Rain = 0
KPMS 241940Z 00009G14KT 10/M08 A3017 RMK A01 T00991075  RH  029%=      5-min Rain = 0
KPMS 241945Z 01009G15KT 10/M08 A3016 RMK A01 T01011079  RH  027%=      5-min Rain = 0
KPMS 241950Z 02005KT 10/M08 A3016 RMK A01 T01041084  RH  026%=      5-min Rain = 0
KPMS 241955Z 03009KT 10/M09 A3016 RMK A01 T01021088  RH  025%=      5-min Rain = 0
KPMS 242000Z 02007G13KT 10/M08 A3016 RMK A01 T01031084  RH  026%=      5-min Rain = 0
KPMS 242005Z 02009KT 11/M09 A3016 RMK A01 T01081087  RH  025%=      5-min Rain = 0
KPMS 242010Z 04008G14KT 10/M09 A3016 RMK A01 T01041090  RH  025%=      5-min Rain = 0
KPMS 242015Z 02007G13KT 10/M10 A3016 RMK A01 T01021099  RH  023%=      5-min Rain = 0
KPMS 242020Z 02009G15KT 10/M09 A3016 RMK A01 T01041090  RH  025%=      5-min Rain = 0
KPMS 242025Z 04006KT 10/M09 A3016 RMK A01 T01041091  RH  024%=      5-min Rain = 0
KPMS 242030Z 02008G13KT 11/M09 A3016 RMK A01 T01091088  RH  024%=      5-min Rain = 0
KPMS 242035Z 05007KT 11/M10 A3015 RMK A01 T01081095  RH  023%=      5-min Rain = 0
KPMS 242040Z 04010G17KT 11/M10 A3015 RMK A01 T01081099  RH  022%=      5-min Rain = 0
KPMS 242045Z 04010KT 11/M10 A3015 RMK A01 T01111103  RH  021%=      5-min Rain = 0
KPMS 242050Z 06007KT 11/M10 A3015 RMK A01 T01111103  RH  021%=      5-min Rain = 0
KPMS 242055Z 05007KT 11/M10 A3015 RMK A01 T01091099  RH  022%=      5-min Rain = 0
KPMS 242100Z 06008G14KT 11/M10 A3015 RMK A01 T01101101  RH  022%=      5-min Rain = 0
KPMS 242105Z 03011KT 11/M10 A3015 RMK A01 T01111100  RH  022%=      5-min Rain = 0
KPMS 242110Z 05008G13KT 11/M10 A3015 RMK A01 T01091100  RH  022%=      5-min Rain = 0
KPMS 242115Z 05008KT 11/M10 A3015 RMK A01 T01111097  RH  022%=      5-min Rain = 0
KPMS 242120Z 04007G12KT 11/M10 A3015 RMK A01 T01091101  RH  022%=      5-min Rain = 0
KPMS 242125Z 04008G15KT 11/M10 A3015 RMK A01 T01131097  RH  022%=      5-min Rain = 0
KPMS 242130Z 05011KT 12/M10 A3015 RMK A01 T01161099  RH  021%=      5-min Rain = 0
KPMS 242135Z 05008G13KT 11/M10 A3015 RMK A01 T01111104  RH  021%=      5-min Rain = 0
KPMS 242140Z 05006G11KT 11/M10 A3015 RMK A01 T01121101  RH  021%=      5-min Rain = 0
KPMS 242145Z 06010G15KT 11/M10 A3015 RMK A01 T01121104  RH  021%=      5-min Rain = 0
KPMS 242150Z 04007KT 11/M11 A3015 RMK A01 T01121106  RH  020%=      5-min Rain = 0
KPMS 242155Z 05009G14KT 11/M10 A3015 RMK A01 T01121104  RH  021%=      5-min Rain = 0
KPMS 242200Z 05009KT 11/M11 A3015 RMK A01 T01131106  RH  020%=      5-min Rain = 0
KPMS 242205Z 06008KT 12/M10 A3015 RMK A01 T01151102  RH  021%=      5-min Rain = 0
KPMS 242210Z 06007G12KT 12/M10 A3014 RMK A01 T01151101  RH  021%=      5-min Rain = 0
KPMS 242215Z 05010KT 11/M11 A3014 RMK A01 T01141106  RH  020%=      5-min Rain = 0
KPMS 242220Z 05007KT 11/M11 A3014 RMK A01 T01091109  RH  020%=      5-min Rain = 0
KPMS 242225Z 06009KT 11/M10 A3014 RMK A01 T01111104  RH  021%=      5-min Rain = 0
KPMS 242230Z 07008G14KT 11/M10 A3014 RMK A01 T01101103  RH  021%=      5-min Rain = 0
KPMS 242235Z 06009KT 11/M10 A3014 RMK A01 T01111100  RH  022%=      5-min Rain = 0
KPMS 242240Z 08010KT 11/M10 A3014 RMK A01 T01111100  RH  022%=      5-min Rain = 0
KPMS 242245Z 07007KT 11/M10 A3013 RMK A01 T01111102  RH  021%=      5-min Rain = 0
KPMS 242250Z 07009G14KT 11/M10 A3013 RMK A01 T01121099  RH  022%=      5-min Rain = 0
KPMS 242255Z 07011G16KT 11/M10 A3013 RMK A01 T01081101  RH  022%=      5-min Rain = 0
KPMS 242300Z 07010G16KT 11/M10 A3013 RMK A01 T01071102  RH  022%=      5-min Rain = 0
KPMS 242305Z 05010KT 11/M10 A3013 RMK A01 T01061103  RH  022%=      5-min Rain = 0
KPMS 242310Z 05010KT 11/M10 A3014 RMK A01 T01071102  RH  022%=      5-min Rain = 0
KPMS 242315Z 04010KT 11/M10 A3014 RMK A01 T01061103  RH  022%=      5-min Rain = 0
KPMS 242320Z 05009KT 11/M10 A3014 RMK A01 T01051102  RH  022%=      5-min Rain = 0
KPMS 242325Z 06010KT 11/M10 A3014 RMK A01 T01051101  RH  022%=      5-min Rain = 0
KPMS 242330Z 06011KT 10/M10 A3014 RMK A01 T01031101  RH  023%=      5-min Rain = 0
KPMS 242335Z 05009KT 10/M10 A3014 RMK A01 T01011102  RH  023%=      5-min Rain = 0
KPMS 242340Z 06010KT 10/M10 A3014 RMK A01 T01001100  RH  023%=      5-min Rain = 0
KPMS 242345Z 07010KT 10/M10 A3014 RMK A01 T00991098  RH  024%=      5-min Rain = 0
KPMS 242350Z 07011KT 10/M10 A3014 RMK A01 T00971098  RH  024%=      5-min Rain = 0
KPMS 242355Z 06010KT 10/M10 A3015 RMK A01 T00951098  RH  025%=      5-min Rain = 0
KPMS 250000Z 05009KT 09/M10 A3015 RMK A01 T00931097  RH  025%=      5-min Rain = 0
KPMS 250005Z 06008KT 09/M10 A3015 RMK A01 T00901096  RH  026%=      5-min Rain = 0
KPMS 250010Z 06008KT 09/M09 A3015 RMK A01 T00861091  RH  027%=      5-min Rain = 0
KPMS 250015Z 05007KT 08/M09 A3015 RMK A01 T00831091  RH  028%=      5-min Rain = 0
KPMS 250020Z 05007KT 08/M10 A3016 RMK A01 T00801095  RH  028%=      5-min Rain = 0
KPMS 250025Z 05006KT 08/M09 A3016 RMK A01 T00751094  RH  029%=      5-min Rain = 0
KPMS 250030Z 05006KT 07/M09 A3017 RMK A01 T00701092  RH  030%=      5-min Rain = 0
KPMS 250035Z 06007KT 07/M09 A3017 RMK A01 T00651091  RH  032%=      5-min Rain = 0
KPMS 250040Z 06008KT 06/M09 A3017 RMK A01 T00581089  RH  034%=      5-min Rain = 0
KPMS 250045Z 06008KT 05/M09 A3017 RMK A01 T00541090  RH  035%=      5-min Rain = 0
KPMS 250050Z 06007KT 05/M09 A3018 RMK A01 T00511090  RH  035%=      5-min Rain = 0
KPMS 250055Z 06008KT 05/M09 A3018 RMK A01 T00471089  RH  036%=      5-min Rain = 0
KPMS 250100Z 06008KT 04/M09 A3018 RMK A01 T00441090  RH  037%=      5-min Rain = 0
KPMS 250105Z 06008KT 05/M09 A3018 RMK A01 T00461091  RH  036%=      5-min Rain = 0
KPMS 250110Z 06008KT 05/M09 A3019 RMK A01 T00451090  RH  037%=      5-min Rain = 0
KPMS 250115Z 06008KT 04/M09 A3019 RMK A01 T00431090  RH  037%=      5-min Rain = 0
KPMS 250120Z 06009KT 04/M09 A3019 RMK A01 T00391090  RH  038%=      5-min Rain = 0
KPMS 250125Z 05008KT 04/M09 A3019 RMK A01 T00381090  RH  039%=      5-min Rain = 0
KPMS 250130Z 05008KT 04/M09 A3019 RMK A01 T00391090  RH  038%=      5-min Rain = 0
KPMS 250135Z 04006KT 04/M09 A302 RMK A01 T00361091  RH  039%=      5-min Rain = 0
KPMS 250140Z 04006KT 02/M09 A302 RMK A01 T00241090  RH  042%=      5-min Rain = 0
KPMS 250145Z 04005KT 02/M09 A302 RMK A01 T00191092  RH  044%=      5-min Rain = 0
KPMS 250150Z 04006KT 02/M09 A302 RMK A01 T00171092  RH  044%=      5-min Rain = 0
KPMS 250155Z 04005KT 01/M09 A302 RMK A01 T00131092  RH  045%=      5-min Rain = 0
KPMS 250200Z 05006KT 02/M09 A3021 RMK A01 T00191092  RH  044%=      5-min Rain = 0
KPMS 250205Z 04005KT 03/M09 A3021 RMK A01 T00251093  RH  041%=      5-min Rain = 0
KPMS 250210Z 05005KT 02/M09 A3021 RMK A01 T00221092  RH  043%=      5-min Rain = 0
KPMS 250215Z 05006KT 02/M09 A3021 RMK A01 T00241091  RH  042%=      5-min Rain = 0
KPMS 250220Z 05006KT 02/M09 A3021 RMK A01 T00221091  RH  043%=      5-min Rain = 0
KPMS 250225Z 05006KT 02/M09 A3021 RMK A01 T00211090  RH  044%=      5-min Rain = 0
KPMS 250230Z 05006KT 02/M09 A3021 RMK A01 T00191090  RH  044%=      5-min Rain = 0
KPMS 250235Z 05008KT 02/M09 A3021 RMK A01 T00211088  RH  044%=      5-min Rain = 0
KPMS 250240Z 06009KT 02/M09 A3021 RMK A01 T00241085  RH  044%=      5-min Rain = 0
KPMS 250245Z 06009KT 03/M09 A3021 RMK A01 T00261085  RH  044%=      5-min Rain = 0
KPMS 250250Z 06009KT 03/M09 A3021 RMK A01 T00271086  RH  043%=      5-min Rain = 0
KPMS 250255Z 06009KT 03/M09 A3021 RMK A01 T00261086  RH  043%=      5-min Rain = 0
KPMS 250300Z 06010KT 03/M09 A3021 RMK A01 T00251086  RH  044%=      5-min Rain = 0
KPMS 250305Z 05009KT 03/M09 A3021 RMK A01 T00271087  RH  043%=      5-min Rain = 0
KPMS 250310Z 05009KT 03/M09 A3021 RMK A01 T00321089  RH  041%=      5-min Rain = 0
KPMS 250315Z 06010KT 03/M09 A3021 RMK A01 T00341089  RH  040%=      5-min Rain = 0
KPMS 250320Z 06010KT 03/M09 A3021 RMK A01 T00311089  RH  041%=      5-min Rain = 0
KPMS 250325Z 06010KT 02/M09 A3021 RMK A01 T00241088  RH  043%=      5-min Rain = 0
KPMS 250330Z 06009KT 02/M09 A3022 RMK A01 T00231088  RH  044%=      5-min Rain = 0
KPMS 250335Z 06010KT 02/M09 A3022 RMK A01 T00231088  RH  044%=      5-min Rain = 0
KPMS 250340Z 06009KT 02/M09 A3022 RMK A01 T00201087  RH  045%=      5-min Rain = 0
KPMS 250345Z 06009KT 02/M09 A3022 RMK A01 T00181087  RH  046%=      5-min Rain = 0
KPMS 250350Z 06010KT 02/M09 A3022 RMK A01 T00181087  RH  046%=      5-min Rain = 0
KPMS 250355Z 06009KT 02/M09 A3023 RMK A01 T00161086  RH  047%=      5-min Rain = 0
KPMS 250400Z 06009KT 01/M09 A3023 RMK A01 T00141085  RH  047%=      5-min Rain = 0
KPMS 250405Z 06008KT 01/M09 A3023 RMK A01 T00121085  RH  048%=      5-min Rain = 0
KPMS 250410Z 06008KT 01/M09 A3024 RMK A01 T00101085  RH  049%=      5-min Rain = 0
KPMS 250415Z 06009KT 01/M09 A3023 RMK A01 T00111085  RH  049%=      5-min Rain = 0
KPMS 250420Z 06009KT 01/M09 A3023 RMK A01 T00101085  RH  049%=      5-min Rain = 0
KPMS 250425Z 06009KT 01/M09 A3023 RMK A01 T00111085  RH  049%=      5-min Rain = 0
KPMS 250430Z 06010KT 01/M09 A3023 RMK A01 T00101085  RH  049%=      5-min Rain = 0
KPMS 250435Z 06009KT 01/M09 A3023 RMK A01 T00071085  RH  050%=      5-min Rain = 0
KPMS 250440Z 06009KT 01/M08 A3023 RMK A01 T00061084  RH  051%=      5-min Rain = 0
KPMS 250445Z 06010KT 01/M08 A3023 RMK A01 T00071084  RH  050%=      5-min Rain = 0
KPMS 250450Z 06011KT 01/M09 A3023 RMK A01 T00101086  RH  049%=      5-min Rain = 0
KPMS 250455Z 06010KT 01/M09 A3023 RMK A01 T00101086  RH  049%=      5-min Rain = 0
KPMS 250500Z 06010KT 01/M09 A3023 RMK A01 T00091086  RH  049%=      5-min Rain = 0
KPMS 250505Z 06009KT 01/M09 A3024 RMK A01 T00071086  RH  050%=      5-min Rain = 0
KPMS 250510Z 06009KT 00/M09 A3024 RMK A01 T00041085  RH  051%=      5-min Rain = 0
KPMS 250515Z 06009KT 00/M08 A3024 RMK A01 T00021084  RH  052%=      5-min Rain = 0
KPMS 250520Z 07008KT 00/M08 A3024 RMK A01 T00021083  RH  053%=      5-min Rain = 0
KPMS 250525Z 07007KT M00/M08 A3024 RMK A01 T10011083  RH  054%=      5-min Rain = 0
KPMS 250530Z 08006KT M01/M08 A3024 RMK A01 T10051083  RH  055%=      5-min Rain = 0
KPMS 250535Z 09006KT M02/M09 A3023 RMK A01 T10151085  RH  059%=      5-min Rain = 0
KPMS 250540Z 08006KT M02/M09 A3023 RMK A01 T10181085  RH  060%=      5-min Rain = 0
KPMS 250545Z 08006KT M02/M08 A3023 RMK A01 T10211084  RH  062%=      5-min Rain = 0
KPMS 250550Z 07007KT M01/M08 A3023 RMK A01 T10141080  RH  061%=      5-min Rain = 0
KPMS 250555Z 07007KT M01/M08 A3023 RMK A01 T10081080  RH  058%=      5-min Rain = 0

Page generated in 0.0088 seconds.